Terminal Aerodrome Forecast
Issued by NWS

Home | Current Version | Previous Version | Text Only | Print | Product List | Glossary On
Versions: 1 2 3 4 5 6 7 8 9 10 11 12 13 14 15 16 17 18 19 20 21 22 23 24
000
FTUS43 KABR 070542 CCA
TAFMBG
TAF COR
KMBG 070542Z 0706/0806 33008KT P6SM OVC060
      TEMPO 0706/0710 P6SM -SHRA OVC010
     FM071000 34014KT P6SM OVC010
     FM071500 33020G28KT P6SM OVC025
     FM072100 32015KT P6SM SCT040
     FM080100 35006KT P6SM SKC=

USA.gov is the U.S. government's official web portal to all federal, state and local government web resources and services.